Time;durP1;ratioP1;P1;durP2;ratioP2;P2;SDS_P1;SDS_P2;PMS_P1;PMS_P2;Temp;Humidity;BMP_temperature;BMP_pressure;BME280_temperature;BME280_humidity;BME280_pressure;Samples;Min_cycle;Max_cycle;Signal;HPM_P1;HPM_P2
2021/05/29 00:00:16;;;;;;;4.12;2.75;;;;;;;8.80;100.00;101157.06;2573265;55;20139;-74
2021/05/29 00:02:44;;;;;;;3.42;2.87;;;;;;;8.74;100.00;101147.66;2573587;55;20143;-76
2021/05/29 00:05:12;;;;;;;6.57;3.67;;;;;;;8.77;100.00;101152.78;2573290;55;20150;-74
2021/05/29 00:07:39;;;;;;;6.43;4.30;;;;;;;8.81;100.00;101155.22;2573297;55;20162;-75
2021/05/29 00:10:08;;;;;;;7.22;4.85;;;;;;;8.82;100.00;101164.94;2573359;55;20114;-76
2021/05/29 00:12:35;;;;;;;7.90;4.10;;;;;;;8.80;100.00;101165.03;2573336;55;20136;-75
2021/05/29 00:15:04;;;;;;;6.25;3.95;;;;;;;8.80;100.00;101172.16;2573208;55;20173;-75
2021/05/29 00:17:31;;;;;;;5.97;3.87;;;;;;;8.74;100.00;101170.72;2573232;55;20124;-74
2021/05/29 00:19:59;;;;;;;5.35;3.08;;;;;;;8.68;100.00;101171.09;2568180;55;20110;-74
2021/05/29 00:22:28;;;;;;;6.32;3.22;;;;;;;8.62;100.00;101167.00;2573255;55;20121;-76
2021/05/29 00:24:55;;;;;;;8.43;3.35;;;;;;;8.55;100.00;101176.31;2573269;55;20143;-75
2021/05/29 00:27:23;;;;;;;4.03;3.25;;;;;;;8.53;100.00;101183.53;2573119;55;20635;-74
2021/05/29 00:29:50;;;;;;;7.28;3.37;;;;;;;8.52;100.00;101187.09;2573315;55;20177;-76
2021/05/29 00:32:18;;;;;;;4.80;3.30;;;;;;;8.47;100.00;101190.88;2573241;55;20165;-74
2021/05/29 00:34:45;;;;;;;7.12;3.40;;;;;;;8.47;100.00;101190.88;2573133;55;20143;-74
2021/05/29 00:37:13;;;;;;;9.35;4.45;;;;;;;8.42;100.00;101187.62;2573042;55;20518;-76
2021/05/29 00:39:41;;;;;;;6.20;3.83;;;;;;;8.38;100.00;101180.75;2572790;55;20117;-74
2021/05/29 00:42:08;;;;;;;8.05;4.85;;;;;;;8.38;100.00;101191.41;2573221;55;20116;-74
2021/05/29 00:44:47;;;;;;;7.45;4.78;;;;;;;8.42;100.00;101187.62;2573203;55;20126;-74
2021/05/29 00:47:17;;;;;;;6.07;4.00;;;;;;;8.30;100.00;101196.31;2572962;55;20124;-76
2021/05/29 00:49:44;;;;;;;6.95;4.15;;;;;;;8.28;100.00;101191.09;2572974;55;20117;-74
2021/05/29 00:52:15;;;;;;;6.62;3.85;;;;;;;8.31;100.00;101201.53;2573214;55;20682;-75
2021/05/29 00:54:43;;;;;;;5.37;4.32;;;;;;;8.30;100.00;101196.31;2573438;55;20109;-76
2021/05/29 00:57:13;;;;;;;5.70;4.18;;;;;;;8.32;100.00;101197.94;2573937;55;20132;-74
2021/05/29 00:59:40;;;;;;;4.35;3.65;;;;;;;8.43;100.00;101207.09;2573882;55;20124;-76
2021/05/29 01:02:10;;;;;;;7.35;4.05;;;;;;;8.39;100.00;101195.78;2573907;55;20110;-76
2021/05/29 01:04:38;;;;;;;6.62;4.20;;;;;;;8.43;100.00;101210.63;2573722;55;20120;-74
2021/05/29 01:07:10;;;;;;;5.05;4.10;;;;;;;8.47;100.00;101214.78;2568765;55;20136;-76
2021/05/29 01:09:39;;;;;;;6.53;3.90;;;;;;;8.45;100.00;101203.41;2573786;55;20503;-75
2021/05/29 01:12:09;;;;;;;9.35;3.90;;;;;;;8.50;100.00;101205.78;2573843;55;20498;-76
2021/05/29 01:14:42;;;;;;;7.40;3.75;;;;;;;8.51;100.00;101217.31;2573680;55;20106;-74
2021/05/29 01:17:09;;;;;;;8.18;4.28;;;;;;;8.53;100.00;101212.78;2573892;55;20120;-76
2021/05/29 01:19:37;;;;;;;9.35;4.47;;;;;;;8.55;100.00;101217.03;2568770;55;20114;-74
2021/05/29 01:22:07;;;;;;;6.30;3.95;;;;;;;8.59;100.00;101218.59;2574044;55;20128;-74
2021/05/29 01:24:35;;;;;;;5.70;4.22;;;;;;;8.58;100.00;101216.87;2573771;55;20653;-74
2021/05/29 01:27:04;;;;;;;5.93;3.55;;;;;;;8.62;100.00;101226.37;2573850;55;20154;-74
2021/05/29 01:29:31;;;;;;;4.55;3.50;;;;;;;8.61;100.00;101224.66;2573796;55;20110;-75
2021/05/29 01:32:06;;;;;;;6.00;4.30;;;;;;;8.69;100.00;101218.88;2574355;55;20675;-75
2021/05/29 01:34:37;;;;;;;5.85;3.58;;;;;;;8.61;100.00;101218.47;2574048;55;20151;-74
2021/05/29 01:37:06;;;;;;;;;;;;;;;9.08;100.00;101226.37;2568928;55;20125;-76
2021/05/29 01:39:33;;;;;;;5.72;3.70;;;;;;;9.45;100.00;101229.44;2573855;55;20009;-75
2021/05/29 01:42:01;;;;;;;5.15;3.10;;;;;;;10.03;100.00;101245.34;2573718;55;20124;-76
2021/05/29 01:44:29;;;;;;;3.42;3.05;;;;;;;10.25;100.00;101239.47;2573922;55;20499;-75
2021/05/29 01:47:01;;;;;;;7.20;3.22;;;;;;;10.32;100.00;101242.56;2573827;55;20106;-76
2021/05/29 01:49:29;;;;;;;5.30;2.95;;;;;;;10.37;99.52;101252.94;2573857;55;20140;-75
2021/05/29 01:51:56;;;;;;;4.32;2.55;;;;;;;10.27;97.96;101242.03;2573423;55;20110;-78
2021/05/29 01:54:30;;;;;;;4.70;2.80;;;;;;;10.07;98.57;101251.31;2573717;55;20165;-76
2021/05/29 01:56:58;;;;;;;2.55;2.20;;;;;;;9.90;98.09;101250.63;2573762;55;20157;-74
2021/05/29 01:59:26;;;;;;;4.22;2.65;;;;;;;9.69;98.72;101258.16;2573734;55;20118;-77
2021/05/29 02:01:53;;;;;;;3.75;2.65;;;;;;;9.55;98.34;101257.22;2573744;55;20118;-76
2021/05/29 02:04:21;;;;;;;4.65;2.33;;;;;;;9.46;98.92;101250.63;2573708;55;20526;-74
2021/05/29 02:06:48;;;;;;;2.85;2.30;;;;;;;9.37;98.79;101261.00;2573650;55;20606;-74
2021/05/29 02:09:15;;;;;;;4.75;2.53;;;;;;;9.29;99.19;101259.66;2573631;55;20144;-74
2021/05/29 02:11:44;;;;;;;2.90;2.30;;;;;;;9.22;98.84;101261.00;2573695;55;20109;-76
2021/05/29 02:14:11;;;;;;;2.72;2.20;;;;;;;9.16;99.04;101261.38;2573586;55;20112;-74
2021/05/29 02:16:38;;;;;;;2.20;2.00;;;;;;;9.08;98.03;101263.63;2568497;55;20114;-74
2021/05/29 02:19:06;;;;;;;3.92;2.00;;;;;;;8.97;98.48;101267.81;2573488;55;20122;-77
2021/05/29 02:21:34;;;;;;;2.50;2.03;;;;;;;8.93;98.62;101270.72;2573495;55;20127;-76
2021/05/29 02:24:01;;;;;;;3.97;2.20;;;;;;;8.87;98.70;101266.63;2573577;55;20112;-75
2021/05/29 02:26:29;;;;;;;6.82;3.33;;;;;;;8.87;98.97;101278.16;2573612;55;20619;-74
2021/05/29 02:28:57;;;;;;;5.60;3.80;;;;;;;8.77;99.09;101272.50;2573500;55;20131;-75
2021/05/29 02:31:25;;;;;;;3.25;2.92;;;;;;;8.77;98.77;101285.81;2573466;55;20124;-76
2021/05/29 02:33:53;;;;;;;7.35;2.42;;;;;;;8.76;98.81;101289.41;2573517;55;20232;-76
2021/05/29 02:36:20;;;;;;;3.00;2.20;;;;;;;8.72;98.77;101292.34;2573760;55;20131;-76
2021/05/29 02:38:48;;;;;;;3.42;2.25;;;;;;;8.69;99.33;101298.69;2573413;55;20117;-75
2021/05/29 02:41:17;;;;;;;2.53;2.22;;;;;;;8.84;99.21;101301.41;2573661;55;20125;-74
2021/05/29 02:43:44;;;;;;;5.62;2.40;;;;;;;8.94;99.23;101294.59;2573557;55;20550;-76
2021/05/29 02:46:13;;;;;;;2.53;2.10;;;;;;;8.92;99.07;101301.84;2573589;55;20110;-74
2021/05/29 02:48:40;;;;;;;3.28;2.55;;;;;;;8.94;98.60;101309.69;2573596;55;20140;-74
2021/05/29 02:51:08;;;;;;;4.10;2.10;;;;;;;8.93;98.50;101308.88;2568559;55;20246;-74
2021/05/29 02:53:35;;;;;;;3.53;2.20;;;;;;;8.86;97.88;101304.84;2573392;55;20117;-74
2021/05/29 02:56:03;;;;;;;3.22;2.20;;;;;;;8.80;97.27;101308.72;2573434;55;20120;-75
2021/05/29 02:58:30;;;;;;;3.62;2.25;;;;;;;8.81;98.06;101314.87;2573422;55;20638;-74
2021/05/29 03:00:58;;;;;;;3.17;2.47;;;;;;;8.83;98.48;101307.69;2573495;55;20117;-76
2021/05/29 03:03:26;;;;;;;3.42;2.28;;;;;;;8.96;97.27;101314.00;2573348;55;20125;-74
2021/05/29 03:05:54;;;;;;;5.05;2.25;;;;;;;9.15;95.10;101318.22;2573345;55;20170;-76
2021/05/29 03:08:22;;;;;;;4.12;2.17;;;;;;;9.35;94.88;101318.84;2573337;55;20136;-74
2021/05/29 03:10:51;;;;;;;2.70;1.90;;;;;;;9.44;92.45;101318.28;2573422;55;20218;-76
2021/05/29 03:13:19;;;;;;;2.20;2.00;;;;;;;9.68;92.05;101323.06;2573543;55;20109;-76
2021/05/29 03:15:47;;;;;;;3.97;2.08;;;;;;;9.82;91.13;101323.06;2573358;55;20512;-75
2021/05/29 03:18:15;;;;;;;2.58;1.90;;;;;;;10.15;90.55;101326.34;2573387;55;20105;-76
2021/05/29 03:20:44;;;;;;;4.05;2.33;;;;;;;10.33;87.17;101315.47;2573407;55;20124;-76
2021/05/29 03:23:11;;;;;;;2.47;1.70;;;;;;;10.43;85.85;101320.12;2573392;55;20493;-74
2021/05/29 03:25:39;;;;;;;3.10;1.90;;;;;;;10.51;85.65;101326.75;2573457;55;20165;-77
2021/05/29 03:28:08;;;;;;;2.20;2.00;;;;;;;10.71;85.67;101320.97;2573229;55;20114;-74
2021/05/29 03:30:36;;;;;;;6.35;2.17;;;;;;;10.69;84.88;101328.22;2573174;55;20102;-74
2021/05/29 03:33:04;;;;;;;2.25;2.00;;;;;;;10.49;85.76;101326.03;2573328;55;20127;-74
2021/05/29 03:35:32;;;;;;;2.10;1.75;;;;;;;10.34;84.10;101333.16;2573320;55;20106;-76
2021/05/29 03:38:00;;;;;;;3.85;2.20;;;;;;;10.13;84.53;101331.78;2573383;55;20105;-74
2021/05/29 03:40:28;;;;;;;2.78;2.20;;;;;;;9.99;86.15;101329.13;2573292;55;20121;-75
2021/05/29 03:42:55;;;;;;;2.58;1.80;;;;;;;9.99;87.58;101334.47;2573231;55;20128;-76
2021/05/29 03:45:23;;;;;;;3.35;2.37;;;;;;;9.83;87.69;101335.44;2573250;55;20113;-75
2021/05/29 03:47:51;;;;;;;2.20;2.00;;;;;;;9.92;87.75;101335.78;2573334;55;20499;-74
2021/05/29 03:50:22;;;;;;;2.47;2.28;;;;;;;9.97;88.19;101339.03;2573395;55;20147;-76
2021/05/29 03:52:49;;;;;;;2.47;2.00;;;;;;;9.80;85.91;101348.94;2573312;55;20161;-74
2021/05/29 03:55:19;;;;;;;5.32;2.12;;;;;;;9.53;86.53;101352.34;2573292;55;20113;-75
2021/05/29 03:57:47;;;;;;;2.37;2.12;;;;;;;9.27;85.80;101352.09;2573233;55;20492;-76
2021/05/29 04:00:18;;;;;;;2.22;1.90;;;;;;;9.22;85.57;101348.87;2573251;55;20121;-76
2021/05/29 04:02:46;;;;;;;2.78;2.10;;;;;;;9.15;85.65;101356.34;2573204;55;20133;-74
2021/05/29 04:05:14;;;;;;;2.45;2.20;;;;;;;8.97;86.38;101360.09;2573184;55;20110;-74
2021/05/29 04:07:42;;;;;;;2.60;2.22;;;;;;;8.99;86.23;101361.72;2573181;55;20154;-75
2021/05/29 04:10:12;;;;;;;2.10;1.90;;;;;;;8.97;86.56;101355.63;2568203;55;20131;-74
2021/05/29 04:12:41;;;;;;;2.80;2.40;;;;;;;9.04;86.48;101370.31;2573140;55;20170;-76
2021/05/29 04:15:10;;;;;;;4.65;2.58;;;;;;;9.02;86.99;101369.53;2568059;55;20119;-76
2021/05/29 04:17:39;;;;;;;3.28;2.92;;;;;;;8.91;86.64;101379.94;2573130;55;20121;-74
2021/05/29 04:20:07;;;;;;;3.33;2.92;;;;;;;9.07;87.62;101381.72;2573053;55;20114;-74
2021/05/29 04:22:36;;;;;;;3.60;2.00;;;;;;;9.43;83.95;101377.84;2568020;55;20109;-74
2021/05/29 04:25:05;;;;;;;2.95;2.60;;;;;;;9.79;86.88;101381.03;2573473;55;20114;-76
2021/05/29 04:27:32;;;;;;;4.18;2.45;;;;;;;10.36;84.61;101374.81;2573254;55;20114;-75
2021/05/29 04:30:01;;;;;;;3.05;2.58;;;;;;;10.86;80.63;101385.00;2574447;55;20651;-75
2021/05/29 04:32:29;;;;;;;2.83;2.50;;;;;;;11.36;78.88;101387.88;2573714;55;20118;-75
2021/05/29 04:34:57;;;;;;;5.05;2.22;;;;;;;11.55;76.17;101389.31;2573873;55;20583;-76
2021/05/29 04:37:24;;;;;;;7.20;2.67;;;;;;;11.53;73.48;101405.47;2573954;55;20112;-74
2021/05/29 04:39:53;;;;;;;2.85;2.08;;;;;;;11.27;73.22;101397.41;2568709;55;20121;-75
2021/05/29 04:42:20;;;;;;;2.25;2.00;;;;;;;11.22;73.46;101404.00;2573834;55;20124;-76
2021/05/29 04:44:48;;;;;;;3.83;2.05;;;;;;;11.00;73.98;101410.78;2574024;55;20140;-76
2021/05/29 04:47:17;;;;;;;3.15;1.87;;;;;;;10.69;75.39;101413.63;2573861;55;20132;-74
2021/05/29 04:49:44;;;;;;;3.20;2.83;;;;;;;10.38;75.65;101409.38;2573774;55;20121;-76
2021/05/29 04:52:11;;;;;;;2.00;1.77;;;;;;;10.13;76.11;101419.78;2574097;55;20550;-74
2021/05/29 04:54:39;;;;;;;4.68;2.50;;;;;;;9.95;76.37;101418.25;2574155;55;20106;-74
2021/05/29 04:57:07;;;;;;;3.58;2.53;;;;;;;9.92;76.98;101429.09;2573782;55;20530;-76
2021/05/29 04:59:34;;;;;;;2.65;2.20;;;;;;;10.29;79.16;101416.16;2574001;55;20112;-75
2021/05/29 05:02:02;;;;;;;3.67;2.60;;;;;;;10.74;76.08;101404.50;2573962;55;20128;-75
2021/05/29 05:04:31;;;;;;;3.37;2.30;;;;;;;11.27;74.26;101434.78;2573975;55;20679;-74
2021/05/29 05:07:00;;;;;;;3.37;2.37;;;;;;;11.64;72.62;101436.78;2573938;55;20105;-76
2021/05/29 05:09:32;;;;;;;3.80;2.10;;;;;;;12.04;69.80;101437.69;2573950;55;20117;-75
2021/05/29 05:11:59;;;;;;;3.17;2.03;;;;;;;12.44;70.16;101442.06;2574088;55;20118;-76
2021/05/29 05:14:27;;;;;;;2.22;2.03;;;;;;;12.39;65.58;101440.56;2573779;55;20128;-75
2021/05/29 05:16:59;;;;;;;2.53;2.05;;;;;;;12.25;67.54;101448.72;2574052;55;20090;-75
2021/05/29 05:19:32;;;;;;;3.83;2.30;;;;;;;12.48;64.42;101451.56;2573953;55;20121;-75
2021/05/29 05:21:59;;;;;;;2.10;1.90;;;;;;;12.73;67.50;101457.84;2573902;55;20105;-75
2021/05/29 05:24:27;;;;;;;3.37;2.30;;;;;;;12.79;64.09;101457.37;2573842;55;20120;-75
2021/05/29 05:26:54;;;;;;;2.35;2.15;;;;;;;12.85;62.72;101464.09;2574001;55;20124;-74
2021/05/29 05:29:22;;;;;;;4.50;2.40;;;;;;;12.87;64.46;101462.16;2573857;55;20617;-77
2021/05/29 05:31:50;;;;;;;2.58;2.03;;;;;;;13.04;58.59;101463.63;2573936;55;20121;-76
2021/05/29 05:34:18;;;;;;;2.55;1.98;;;;;;;12.92;62.83;101462.69;2573931;55;20118;-75
2021/05/29 05:36:46;;;;;;;4.22;3.22;;;;;;;13.00;57.49;101473.72;2573930;55;20114;-78
2021/05/29 05:39:16;;;;;;;2.85;2.10;;;;;;;12.66;57.82;101476.16;2573757;55;20128;-79
2021/05/29 05:41:44;;;;;;;2.17;1.67;;;;;;;12.46;59.23;101480.28;2573681;55;20101;-74
2021/05/29 05:44:11;;;;;;;3.97;1.85;;;;;;;12.37;59.77;101482.62;2573886;55;20164;-75
2021/05/29 05:46:39;;;;;;;4.03;1.85;;;;;;;12.49;59.27;101474.69;2573994;55;20138;-75
2021/05/29 05:49:07;;;;;;;2.03;1.75;;;;;;;12.83;59.27;101488.34;2573912;55;20616;-77
2021/05/29 05:51:34;;;;;;;2.17;1.90;;;;;;;12.66;57.05;101485.03;2573664;55;20126;-75
2021/05/29 05:54:03;;;;;;;3.10;2.00;;;;;;;12.63;59.04;101496.00;2573719;55;20117;-78
2021/05/29 05:56:31;;;;;;;2.28;1.75;;;;;;;12.50;58.81;101497.81;2573808;55;20109;-76
2021/05/29 05:58:59;;;;;;;2.65;1.62;;;;;;;12.48;59.40;101494.37;2574316;55;20136;-75
2021/05/29 06:01:28;;;;;;;1.50;1.40;;;;;;;12.80;54.96;101496.56;2573727;55;20126;-75
2021/05/29 06:03:56;;;;;;;3.50;1.45;;;;;;;12.61;57.15;101503.25;2573742;55;20516;-75
2021/05/29 06:06:24;;;;;;;2.05;1.65;;;;;;;12.86;58.51;101498.81;2573647;55;20653;-75
2021/05/29 06:08:52;;;;;;;1.50;1.40;;;;;;;13.02;56.97;101489.66;2573768;55;20118;-75
2021/05/29 06:11:21;;;;;;;5.50;2.30;;;;;;;13.07;56.10;101501.72;2573882;55;20137;-75
2021/05/29 06:19:19;;;;;;;2.50;1.92;;;;;;;12.98;57.52;101506.91;2574045;55;20159;-77
2021/05/29 06:21:49;;;;;;;1.87;1.70;;;;;;;13.20;56.54;101517.75;2573892;55;20610;-75
2021/05/29 06:24:18;;;;;;;1.83;1.60;;;;;;;13.17;57.08;101507.28;2573847;55;20110;-77
2021/05/29 06:26:47;;;;;;;1.92;1.73;;;;;;;13.31;59.93;101510.75;2568972;55;20673;-77
2021/05/29 06:29:15;;;;;;;2.95;2.05;;;;;;;13.31;58.60;101518.78;2573664;55;20619;-75
2021/05/29 06:31:43;;;;;;;6.15;1.55;;;;;;;13.53;54.40;101534.16;2573683;55;20132;-75
2021/05/29 06:34:10;;;;;;;2.85;1.90;;;;;;;13.48;57.38;101525.63;2573717;55;20106;-77
2021/05/29 06:36:38;;;;;;;1.98;1.45;;;;;;;13.66;55.66;101530.56;2573835;55;20109;-75
2021/05/29 06:39:06;;;;;;;4.57;2.00;;;;;;;13.73;56.87;101531.81;2573923;55;20114;-76
2021/05/29 06:41:36;;;;;;;2.08;1.60;;;;;;;13.86;53.88;101537.09;2573514;55;20651;-75
2021/05/29 06:44:05;;;;;;;1.70;1.60;;;;;;;13.78;55.13;101549.25;2573810;55;20109;-78
2021/05/29 06:46:32;;;;;;;1.92;1.62;;;;;;;13.79;56.72;101547.44;2573726;55;20126;-75
2021/05/29 06:49:01;;;;;;;2.62;1.80;;;;;;;13.53;52.02;101546.69;2573618;55;20132;-75
2021/05/29 06:51:35;;;;;;;3.65;2.00;;;;;;;13.14;53.95;101545.03;2573325;55;20117;-77
2021/05/29 06:54:05;;;;;;;1.98;1.77;;;;;;;12.82;54.73;101561.56;2573755;55;20177;-75
2021/05/29 06:59:20;;;;;;;3.95;1.80;;;;;;;12.92;57.88;101557.28;2573959;55;20121;-75
2021/05/29 07:01:48;;;;;;;2.33;1.52;;;;;;;13.03;55.50;101561.88;2573801;55;20113;-76
2021/05/29 07:04:15;;;;;;;4.55;1.80;;;;;;;13.10;54.02;101569.47;2573989;55;20139;-75
2021/05/29 07:06:43;;;;;;;2.60;1.90;;;;;;;13.09;54.58;101563.25;2573739;55;20500;-77
2021/05/29 07:09:12;;;;;;;4.95;1.92;;;;;;;13.10;52.07;101564.94;2573732;55;20128;-76
2021/05/29 07:11:40;;;;;;;2.67;1.80;;;;;;;13.01;56.09;101576.34;2573339;55;20607;-77
2021/05/29 07:14:07;;;;;;;2.72;2.00;;;;;;;12.94;56.81;101571.44;2568357;55;20176;-77
2021/05/29 07:16:37;;;;;;;4.05;1.77;;;;;;;13.15;57.35;101576.22;2573464;55;20114;-78
2021/05/29 07:19:05;;;;;;;1.87;1.65;;;;;;;13.31;54.71;101583.97;2573371;55;20632;-77
2021/05/29 07:21:33;;;;;;;3.85;1.60;;;;;;;13.47;55.14;101575.69;2573291;55;20125;-77
2021/05/29 07:24:01;;;;;;;3.42;1.70;;;;;;;13.70;54.91;101588.38;2573594;55;20114;-77
2021/05/29 07:26:28;;;;;;;5.78;1.87;;;;;;;13.75;51.78;101589.72;2573455;55;20131;-75
2021/05/29 07:28:55;;;;;;;4.00;2.10;;;;;;;13.65;55.22;101586.03;2573490;55;20113;-77
2021/05/29 07:31:23;;;;;;;3.42;1.90;;;;;;;13.67;52.00;101586.75;2573364;55;20132;-75
2021/05/29 07:33:54;;;;;;;2.10;1.80;;;;;;;13.73;52.46;101594.38;2573430;55;20118;-77
2021/05/29 07:36:22;;;;;;;6.45;2.30;;;;;;;13.57;51.75;101604.50;2568307;55;20116;-77
2021/05/29 07:38:50;;;;;;;2.45;1.95;;;;;;;13.78;52.24;101604.75;2573325;55;20109;-77
2021/05/29 07:41:17;;;;;;;2.15;1.65;;;;;;;13.87;52.76;101600.50;2573378;55;20112;-75
2021/05/29 07:43:45;;;;;;;3.28;1.73;;;;;;;14.09;51.49;101601.56;2573317;55;20523;-77
2021/05/29 07:46:13;;;;;;;2.15;1.48;;;;;;;14.28;51.10;101593.81;2573342;55;20492;-77
2021/05/29 07:48:40;;;;;;;1.92;1.67;;;;;;;14.16;50.11;101605.50;2573294;55;20105;-75
2021/05/29 07:51:09;;;;;;;3.90;2.17;;;;;;;14.42;52.20;101610.66;2573165;55;20148;-77
2021/05/29 07:53:39;;;;;;;4.12;2.05;;;;;;;14.57;48.96;101608.59;2573330;55;20128;-75
2021/05/29 07:56:09;;;;;;;2.67;1.77;;;;;;;14.73;50.13;101609.16;2573247;55;20118;-75
2021/05/29 07:58:40;;;;;;;1.80;1.70;;;;;;;14.71;46.63;101616.47;2573318;55;20136;-75
2021/05/29 08:01:07;;;;;;;3.70;1.58;;;;;;;14.92;49.54;101609.53;2573195;55;20105;-77
2021/05/29 08:03:35;;;;;;;2.47;1.70;;;;;;;14.22;48.99;101617.59;2573269;55;20109;-75
2021/05/29 08:06:07;;;;;;;2.65;1.40;;;;;;;13.65;51.02;101626.25;2573444;55;20131;-75
2021/05/29 08:08:36;;;;;;;4.50;1.95;;;;;;;13.08;51.72;101631.19;2573516;55;20135;-75
2021/05/29 08:11:04;;;;;;;5.22;2.10;;;;;;;12.76;53.71;101629.81;2573306;55;20114;-77
2021/05/29 08:13:32;;;;;;;3.17;1.62;;;;;;;12.86;55.14;101647.91;2573381;55;20114;-77
2021/05/29 08:16:00;;;;;;;1.70;1.55;;;;;;;12.76;53.55;101643.19;2573174;55;20118;-77
2021/05/29 08:18:27;;;;;;;3.40;2.10;;;;;;;12.46;53.21;101651.56;2573207;55;20105;-77
2021/05/29 08:20:54;;;;;;;2.90;1.65;;;;;;;12.21;54.37;101650.53;2573337;55;20125;-75
2021/05/29 08:23:22;;;;;;;3.60;2.28;;;;;;;12.50;54.39;101658.41;2573351;55;20164;-77
2021/05/29 08:25:50;;;;;;;2.25;1.75;;;;;;;12.65;53.21;101659.16;2573390;55;20110;-77
2021/05/29 08:28:18;;;;;;;3.85;2.00;;;;;;;12.51;52.76;101649.41;2573069;55;20118;-75
2021/05/29 08:30:46;;;;;;;4.80;2.53;;;;;;;12.51;56.07;101654.75;2573104;55;20106;-75
2021/05/29 08:33:13;;;;;;;5.93;1.73;;;;;;;12.52;52.56;101661.81;2573074;55;20123;-76
2021/05/29 08:35:40;;;;;;;3.47;1.70;;;;;;;12.48;52.83;101671.03;2573260;55;20123;-75
2021/05/29 08:38:08;;;;;;;4.00;1.60;;;;;;;12.31;52.48;101666.84;2573244;55;20132;-76
2021/05/29 08:40:35;;;;;;;4.43;1.85;;;;;;;12.19;53.67;101661.34;2573041;55;20126;-75
2021/05/29 08:43:04;;;;;;;6.12;1.40;;;;;;;11.87;53.44;101660.78;2573045;55;20105;-75
2021/05/29 08:45:32;;;;;;;4.15;2.00;;;;;;;11.69;53.12;101663.69;2573104;55;20157;-78
2021/05/29 08:47:59;;;;;;;3.72;1.80;;;;;;;11.66;55.21;101663.91;2573077;55;20132;-78
2021/05/29 08:50:27;;;;;;;6.03;2.00;;;;;;;11.83;54.62;101661.00;2573068;55;20110;-78
2021/05/29 08:52:55;;;;;;;2.55;1.92;;;;;;;12.61;57.58;101682.59;2573429;55;20128;-76
2021/05/29 08:55:23;;;;;;;5.43;3.25;;;;;;;13.16;52.10;101678.84;2573180;55;20687;-76
2021/05/29 08:57:51;;;;;;;3.83;2.33;;;;;;;13.21;51.13;101674.03;2567985;55;20139;-78
2021/05/29 09:00:23;;;;;;;5.68;2.33;;;;;;;13.28;53.19;101679.81;2572936;55;20140;-78
2021/05/29 09:03:03;;;;;;;5.53;1.85;;;;;;;12.92;51.10;101676.97;2572942;55;20473;-77
2021/05/29 09:05:37;;;;;;;3.20;1.50;;;;;;;12.48;53.22;101689.78;2567786;55;20110;-76
2021/05/29 09:08:06;;;;;;;3.62;1.45;;;;;;;12.47;52.46;101680.87;2573186;55;20101;-77
2021/05/29 09:10:40;;;;;;;2.70;1.73;;;;;;;12.78;53.05;101693.97;2573119;55;20140;-75
2021/05/29 09:13:12;;;;;;;2.30;1.50;;;;;;;12.69;52.58;101695.47;2573180;55;20117;-78
2021/05/29 09:15:49;;;;;;;2.83;1.73;;;;;;;12.56;53.93;101698.13;2573446;55;20165;-75
2021/05/29 09:18:35;;;;;;;3.60;1.77;;;;;;;12.31;53.66;101697.09;2573833;55;20641;-75
2021/05/29 09:21:21;;;;;;;4.97;1.90;;;;;;;11.88;54.29;101694.56;2568886;55;20121;-78
2021/05/29 09:23:50;;;;;;;3.60;1.83;;;;;;;11.66;56.36;101695.97;2573934;55;20143;-77
2021/05/29 09:26:21;;;;;;;4.28;1.95;;;;;;;11.71;57.45;101699.19;2573739;55;20098;-78
2021/05/29 09:28:51;;;;;;;4.30;2.20;;;;;;;11.70;56.12;101697.47;2573920;55;20624;-78
2021/05/29 09:31:21;;;;;;;6.50;2.58;;;;;;;11.90;58.33;101703.34;2573866;55;20153;-75
2021/05/29 09:33:57;;;;;;;3.95;2.08;;;;;;;12.23;58.13;101694.09;2573631;55;20638;-75
2021/05/29 09:36:26;;;;;;;5.93;2.17;;;;;;;12.76;53.84;101695.91;2573724;55;20136;-75
2021/05/29 09:38:55;;;;;;;5.28;1.60;;;;;;;12.80;51.43;101708.13;2573805;55;20121;-78
2021/05/29 09:41:24;;;;;;;3.10;1.60;;;;;;;12.65;53.83;101689.47;2573953;55;20124;-76
2021/05/29 09:43:57;;;;;;;1.65;1.40;;;;;;;12.60;51.07;101712.19;2573815;55;20114;-75
2021/05/29 09:46:26;;;;;;;4.22;1.80;;;;;;;12.18;52.12;101712.28;2573698;55;20110;-77
2021/05/29 09:48:58;;;;;;;2.47;1.85;;;;;;;11.86;54.04;101692.00;2573768;55;20630;-77
2021/05/29 09:51:27;;;;;;;4.03;1.83;;;;;;;11.63;54.55;101709.53;2574103;55;20121;-76
2021/05/29 09:53:56;;;;;;;2.08;1.42;;;;;;;11.46;53.62;101711.47;2573607;55;20110;-77
2021/05/29 09:56:30;;;;;;;3.78;1.85;;;;;;;11.57;56.00;101712.59;2573645;55;20124;-78
2021/05/29 09:59:01;;;;;;;2.97;1.73;;;;;;;11.78;50.71;101721.91;2574013;55;20110;-78
2021/05/29 10:01:49;;;;;;;2.15;1.40;;;;;;;11.69;52.39;101719.81;2573512;55;20136;-76
2021/05/29 10:04:35;;;;;;;3.83;1.95;;;;;;;11.63;54.86;101709.53;2573644;55;20117;-75
2021/05/29 10:07:09;;;;;;;4.18;1.80;;;;;;;12.20;54.11;101710.34;2574219;55;20137;-75
2021/05/29 10:09:40;;;;;;;5.40;1.67;;;;;;;12.34;50.89;101715.66;2575311;55;20170;-75
2021/05/29 10:12:09;;;;;;;4.47;2.03;;;;;;;12.17;50.82;101726.59;2574853;55;20136;-77
2021/05/29 10:14:37;;;;;;;4.22;1.98;;;;;;;11.82;51.12;101718.09;2575478;55;20647;-77
2021/05/29 10:17:12;;;;;;;3.78;1.50;;;;;;;12.23;53.64;101716.34;2574380;55;20114;-74
2021/05/29 10:19:45;;;;;;;6.82;2.17;;;;;;;13.01;54.97;101723.66;2575038;55;20153;-77
2021/05/29 10:22:19;;;;;;;3.50;1.55;;;;;;;13.46;47.99;101726.78;2569452;55;20122;-74
2021/05/29 10:24:50;;;;;;;3.03;1.27;;;;;;;13.60;44.51;101727.59;2569746;55;20542;-78
2021/05/29 10:27:24;;;;;;;5.25;1.65;;;;;;;13.73;43.92;101728.44;2568824;55;20115;-74
2021/05/29 10:29:53;;;;;;;5.10;1.75;;;;;;;13.24;43.11;101723.88;2570066;55;20107;-73
2021/05/29 10:32:27;;;;;;;3.00;1.30;;;;;;;12.88;45.01;101727.19;2569233;55;20135;-78
2021/05/29 10:35:00;;;;;;;5.47;2.20;;;;;;;13.22;44.45;101722.16;2564192;56;20125;-74
2021/05/29 10:37:39;;;;;;;7.50;2.28;;;;;;;13.70;46.02;101717.09;2563651;56;20114;-74
2021/05/29 10:40:22;;;;;;;4.95;1.60;;;;;;;13.53;43.59;101729.00;2569606;55;20165;-78
2021/05/29 10:43:11;;;;;;;5.68;2.70;;;;;;;14.00;44.45;101727.38;2569201;55;20102;-78
2021/05/29 10:45:39;;;;;;;4.30;2.55;;;;;;;13.87;39.86;101708.63;2569380;55;20121;-74
2021/05/29 10:48:13;;;;;;;5.43;1.52;;;;;;;13.91;41.60;101726.25;2564385;56;20571;-74
2021/05/29 10:51:04;;;;;;;3.10;1.20;;;;;;;13.82;39.28;101743.00;2568684;55;20126;-76
2021/05/29 10:53:45;;;;;;;3.78;1.40;;;;;;;13.72;39.04;101731.22;2568315;55;20120;-75
2021/05/29 10:56:32;;;;;;;;;;;;;;;13.81;34.24;101735.06;2568922;55;20121;-77
2021/05/29 10:59:11;;;;;;;2.47;1.35;;;;;;;13.43;35.60;101726.97;2568924;55;19993;-75
2021/05/29 11:02:10;;;;;;;11.45;2.50;;;;;;;13.62;37.40;101741.75;2568345;55;20116;-75
2021/05/29 11:04:39;;;;;;;1.98;0.88;;;;;;;13.48;33.25;101748.97;2546479;56;20110;-76
2021/05/29 11:07:27;;;;;;;4.50;1.75;;;;;;;13.61;35.54;101756.13;2563639;56;20656;-77
2021/05/29 11:09:57;;;;;;;1.37;0.70;;;;;;;13.25;32.24;101763.97;2563293;56;20129;-76
2021/05/29 11:12:52;;;;;;;8.02;1.30;;;;;;;13.52;34.27;101762.16;2568338;55;20154;-76
2021/05/29 11:15:55;;;;;;;1.70;1.55;;;;;;;13.81;36.96;101772.59;2568465;55;20131;-77
2021/05/29 11:18:23;;;;;;;1.37;1.08;;;;;;;13.87;35.88;101764.12;2568472;55;20130;-76
2021/05/29 11:21:10;;;;;;;7.62;1.55;;;;;;;14.23;36.68;101761.53;2568105;55;20231;-75
2021/05/29 11:23:38;;;;;;;1.77;0.77;;;;;;;14.13;31.46;101766.72;2563290;56;20114;-75
2021/05/29 11:26:07;;;;;;;2.05;0.80;;;;;;;13.60;33.27;101770.50;2568163;55;20106;-74
2021/05/29 11:28:35;;;;;;;1.58;0.70;;;;;;;13.75;36.56;101765.87;2568283;55;20177;-75
2021/05/29 11:31:03;;;;;;;2.78;1.20;;;;;;;13.55;31.37;101767.31;2568485;55;20120;-75
2021/05/29 11:33:30;;;;;;;2.50;2.25;;;;;;;13.72;33.81;101776.81;2568136;55;20181;-75
2021/05/29 11:35:58;;;;;;;1.95;1.42;;;;;;;13.88;32.88;101796.22;2568126;55;20113;-77
2021/05/29 11:38:29;;;;;;;3.05;1.05;;;;;;;13.22;34.66;101765.03;2568061;55;20125;-77
2021/05/29 11:40:58;;;;;;;;;;;;;;;13.62;33.71;101790.00;2568471;55;20118;-77
2021/05/29 11:43:37;;;;;;;3.08;0.90;;;;;;;13.54;35.59;101782.53;2568114;55;19996;-74
2021/05/29 11:46:07;;;;;;;3.72;1.00;;;;;;;13.29;36.25;101778.00;2563333;56;20158;-77